Schwenksville, PA (19473)

4:46 PM EST on February 01, 2015 (GMT -0500)
KA1UDX CWOP-AP704 | Change Station
CLOSE
Current Station
Personal Weather Station
Location: Collegeville, PA
Elevation: 253 ft
Nearby Weather Stations
Active Advisory: Winter Storm Warning

Elev 253 ft 40.22 °N, 75.48 °W | Updated 1 minute ago

Overcast
Overcast
36.0 °F
Feels Like 36 °F
N
3.0
Wind Variable Wind from ENE
Gusts 3.7 mph

Today
High -- | Low -- °F
--% Chance of Precip.
Yesterday
High -- | Low -- °F
Precip. -- in
7:11 AM 5:20 PM
Waxing Gibbous, 96% visible
Pressure 30.12 in
Visibility 10.0 miles
Clouds Mostly Cloudy 3600 ft
Overcast 4300 ft
Windchill 36 °F
Dew Point 20 °F
Humidity 53%
Rainfall 0.00 in
Snow Depth Not available.
UV 0 out of 12
Pollen .10 out of 12
Air Quality Not available.
Flu Activity Not available.
METAR KPTW 012054Z AUTO 06003KT 10SM BKN036 OVC043 02/M04 A3011 RMK AO2 SLP198 60000 T00221044 58019

More Conditions Fewer Conditions

Pressure 30.12 in
Visibility 10.0 miles
Clouds Mostly Cloudy 3600 ft
Overcast 4300 ft
Windchill 36 °F
Dew Point 20 °F
Humidity 53%
Rainfall 0.00 in
Snow Depth Not available.
UV 0 out of 12
Pollen .10 out of 12
Air Quality Not available.
Flu Activity Not available.
METAR KPTW 012054Z AUTO 06003KT 10SM BKN036 OVC043 02/M04 A3011 RMK AO2 SLP198 60000 T00221044 58019

More Conditions Fewer Conditions

Nowcast | as of 4:38 PM EST on February 1, 2015

Between now and 600 PM, some light snow will begin to move into parts of eastern Pennsylvania from the west. Temperatures will range from the upper 20s in the elevated terrain to the lower and middle 30s elsewhere.

×

10-Day Weather Forecast

Almanac

Astronomy

Feb. 01, 2015 Rise Set
Actual Time
Civil Twilight
Nautical Twilight
Astronomical Twilight
Moon
Length of Visible Light
Length of Day
Tomorrow will be .
, % of the Moon is Illuminated

Today's Extremes

State Highs State Lows

Community

WunderPhotos

Upload Photos

1,792,555 photos uploaded!

WunderBlogs® & News

Nearby

Air Quality

  Air Quality AQ Index Pollutant
Not available.

Snow Depth

Station Depth Elevation

Earthquake Activity

City Distance Mag. Time & Date
Minimum magnitude displayed is 2.5.

Coastal Water Temperatures

Place Temperature

Nearby Weather Stations